createdAt,value
2022-11-24T00:01:26.192Z,67.02
2022-11-24T00:04:05.177Z,67.16
2022-11-24T00:06:34.886Z,67.35
2022-11-24T00:09:04.258Z,67.22
2022-11-24T00:11:33.989Z,67.19
2022-11-24T00:14:02.637Z,67.42
2022-11-24T00:16:35.444Z,67.58
2022-11-24T00:19:06.142Z,67.65
2022-11-24T00:21:33.797Z,67.75
2022-11-24T00:24:02.252Z,67.64
2022-11-24T00:26:32.354Z,67.80
2022-11-24T00:29:02.303Z,67.79
2022-11-24T00:31:31.951Z,67.83
2022-11-24T00:34:01.766Z,67.67
2022-11-24T00:36:31.302Z,67.81
2022-11-24T00:39:01.374Z,67.85
2022-11-24T00:41:29.633Z,67.76
2022-11-24T00:43:58.312Z,67.74
2022-11-24T00:46:27.127Z,67.93
2022-11-24T00:48:55.564Z,68.22
2022-11-24T00:51:27.107Z,68.14
2022-11-24T00:53:56.350Z,68.08
2022-11-24T00:56:25.015Z,67.95
2022-11-24T00:58:52.827Z,67.95
2022-11-24T01:01:26.234Z,67.97
2022-11-24T01:03:57.325Z,68.09
2022-11-24T01:06:26.265Z,68.19
2022-11-24T01:08:54.865Z,68.52
2022-11-24T01:11:25.617Z,68.30
2022-11-24T01:13:57.713Z,67.93
2022-11-24T01:16:31.612Z,67.89
2022-11-24T01:18:59.481Z,67.71
2022-11-24T01:21:27.281Z,67.61
2022-11-24T01:23:54.979Z,67.56
2022-11-24T01:26:23.065Z,67.58
2022-11-24T01:28:58.258Z,67.58
2022-11-24T01:31:26.974Z,67.43
2022-11-24T01:33:55.189Z,67.23
2022-11-24T01:36:22.973Z,67.15
2022-11-24T01:38:50.900Z,67.31
2022-11-24T01:41:21.404Z,67.10
2022-11-24T01:43:50.247Z,66.75
2022-11-24T01:46:36.917Z,66.61
2022-11-24T01:49:08.073Z,66.60
2022-11-24T01:51:45.361Z,66.53
2022-11-24T01:54:16.804Z,66.39
2022-11-24T01:56:47.158Z,66.40
2022-11-24T01:59:17.936Z,66.30
2022-11-24T02:01:47.835Z,66.26
2022-11-24T02:04:18.445Z,66.06
2022-11-24T02:06:46.513Z,65.83
2022-11-24T02:09:44.704Z,65.96
2022-11-24T02:12:12.545Z,66.28
2022-11-24T02:14:42.240Z,66.21
2022-11-24T02:17:10.382Z,66.22
2022-11-24T02:19:40.823Z,66.24
2022-11-24T02:22:15.479Z,66.53
2022-11-24T02:25:11.920Z,66.61
2022-11-24T02:27:39.642Z,66.09
2022-11-24T02:30:40.649Z,65.69
2022-11-24T02:33:10.349Z,66.08
2022-11-24T02:35:38.037Z,66.59
2022-11-24T02:38:05.759Z,66.47
2022-11-24T02:40:33.507Z,66.34
2022-11-24T02:43:07.970Z,66.10
2022-11-24T02:45:35.774Z,65.74
2022-11-24T02:48:03.556Z,65.71
2022-11-24T02:50:31.251Z,65.78
2022-11-24T02:52:58.901Z,65.65
2022-11-24T02:55:26.813Z,65.53
2022-11-24T02:57:54.518Z,65.70
2022-11-24T03:00:22.728Z,65.62
2022-11-24T03:02:50.591Z,65.26
2022-11-24T03:05:18.666Z,65.11
2022-11-24T03:07:46.502Z,65.22
2022-11-24T03:10:14.286Z,65.15
2022-11-24T03:12:42.163Z,65.28
2022-11-24T03:15:10.625Z,64.96
2022-11-24T03:17:38.265Z,65.37
2022-11-24T03:20:06.685Z,65.41
2022-11-24T03:22:34.406Z,65.42
2022-11-24T03:25:02.179Z,65.14
2022-11-24T03:27:31.030Z,64.86
2022-11-24T03:29:59.059Z,64.64
2022-11-24T03:32:26.713Z,64.59
2022-11-24T03:34:54.500Z,64.70
2022-11-24T03:37:22.678Z,64.89
2022-11-24T03:39:50.560Z,64.75
2022-11-24T03:42:18.240Z,64.61
2022-11-24T03:44:45.921Z,64.89
2022-11-24T03:47:13.745Z,64.65
2022-11-24T03:49:41.647Z,64.76
2022-11-24T03:52:09.790Z,65.05
2022-11-24T03:54:37.466Z,65.24
2022-11-24T03:57:05.568Z,65.59
2022-11-24T03:59:33.236Z,65.78
2022-11-24T04:02:00.962Z,65.90
2022-11-24T04:04:28.772Z,65.93
2022-11-24T04:06:56.702Z,66.10
2022-11-24T04:09:24.386Z,65.93
2022-11-24T04:12:15.001Z,66.00
2022-11-24T04:14:42.634Z,66.22
2022-11-24T04:17:10.506Z,66.06
2022-11-24T04:19:38.291Z,65.69
2022-11-24T04:22:06.071Z,65.37
2022-11-24T04:24:34.093Z,65.36
2022-11-24T04:27:02.174Z,65.52
2022-11-24T04:29:30.227Z,65.44
2022-11-24T04:31:57.965Z,65.96
2022-11-24T04:34:25.716Z,66.41
2022-11-24T04:36:53.464Z,66.34
2022-11-24T04:39:25.154Z,66.40
2022-11-24T04:41:54.911Z,66.17
2022-11-24T04:44:22.662Z,66.50
2022-11-24T04:46:50.467Z,66.32
2022-11-24T04:49:18.560Z,66.10
2022-11-24T04:51:46.478Z,65.92
2022-11-24T04:54:14.496Z,65.87
2022-11-24T04:56:43.856Z,65.80
2022-11-24T04:59:15.395Z,65.52
2022-11-24T05:01:47.003Z,65.32
2022-11-24T05:04:15.887Z,65.34
2022-11-24T05:06:43.833Z,65.33
2022-11-24T05:09:16.082Z,65.11
2022-11-24T05:11:43.874Z,65.19
2022-11-24T05:14:11.653Z,65.14
2022-11-24T05:16:39.590Z,65.21
2022-11-24T05:19:07.716Z,65.15
2022-11-24T05:21:35.499Z,65.30
2022-11-24T05:24:03.561Z,65.03
2022-11-24T05:26:31.346Z,65.32
2022-11-24T05:28:59.141Z,65.40
2022-11-24T05:31:27.128Z,65.27
2022-11-24T05:33:54.966Z,65.08
2022-11-24T05:36:41.605Z,65.23
2022-11-24T05:39:09.580Z,65.27
2022-11-24T05:41:37.400Z,64.99
2022-11-24T05:44:05.382Z,65.31
2022-11-24T05:46:33.259Z,65.36
2022-11-24T05:49:01.171Z,65.82
2022-11-24T05:51:30.600Z,65.69
2022-11-24T05:53:58.307Z,65.88
2022-11-24T05:56:26.048Z,65.82
2022-11-24T05:58:53.800Z,65.72
2022-11-24T06:01:21.693Z,65.85
2022-11-24T06:03:49.428Z,65.53
2022-11-24T06:06:17.298Z,65.48
2022-11-24T06:08:45.020Z,65.49
2022-11-24T06:11:18.834Z,65.53
2022-11-24T06:13:48.715Z,65.20
2022-11-24T06:16:16.843Z,65.24
2022-11-24T06:18:44.689Z,65.77
2022-11-24T06:21:12.541Z,65.92
2022-11-24T06:23:40.748Z,65.44
2022-11-24T06:26:09.369Z,65.77
2022-11-24T06:28:37.498Z,65.85
2022-11-24T06:31:06.009Z,65.91
2022-11-24T06:33:36.344Z,66.03
2022-11-24T06:36:06.486Z,66.16
2022-11-24T06:38:35.949Z,66.41
2022-11-24T06:41:09.808Z,66.28
2022-11-24T06:43:37.781Z,66.50
2022-11-24T06:46:05.946Z,66.52
2022-11-24T06:48:34.226Z,66.42
2022-11-24T06:51:04.474Z,66.37
2022-11-24T06:53:39.737Z,66.19
2022-11-24T06:56:15.750Z,65.98
2022-11-24T06:58:47.322Z,66.17
2022-11-24T07:01:22.609Z,66.00
2022-11-24T07:03:52.059Z,65.89
2022-11-24T07:06:21.865Z,66.17
2022-11-24T07:08:49.875Z,66.04
2022-11-24T07:11:20.985Z,66.08
2022-11-24T07:13:49.183Z,66.04
2022-11-24T07:16:22.405Z,66.00
2022-11-24T07:18:52.217Z,66.05
2022-11-24T07:21:21.524Z,65.62
2022-11-24T07:23:54.077Z,65.81
2022-11-24T07:26:22.793Z,66.17
2022-11-24T07:28:51.170Z,66.00
2022-11-24T07:31:21.660Z,66.33
2022-11-24T07:33:53.672Z,66.21
2022-11-24T07:36:22.478Z,66.13
2022-11-24T07:38:50.748Z,65.98
2022-11-24T07:41:19.747Z,66.07
2022-11-24T07:43:48.352Z,66.00
2022-11-24T07:46:17.709Z,65.87
2022-11-24T07:48:46.390Z,65.84
2022-11-24T07:51:14.781Z,65.68
2022-11-24T07:53:43.265Z,65.60
2022-11-24T07:56:11.147Z,65.49
2022-11-24T07:58:38.953Z,65.09
2022-11-24T08:01:15.655Z,64.88
2022-11-24T08:03:45.204Z,65.56
2022-11-24T08:06:24.999Z,65.71
2022-11-24T08:08:53.371Z,65.87
2022-11-24T08:11:21.257Z,65.89
2022-11-24T08:13:49.080Z,65.61
2022-11-24T08:16:18.230Z,65.57
2022-11-24T08:18:50.943Z,65.40
2022-11-24T08:21:19.477Z,65.41
2022-11-24T08:23:47.481Z,65.48
2022-11-24T08:26:18.798Z,65.00
2022-11-24T08:28:47.425Z,65.20
2022-11-24T08:31:18.777Z,64.97
2022-11-24T08:33:47.020Z,64.56
2022-11-24T08:36:18.062Z,64.55
2022-11-24T08:38:46.300Z,64.59
2022-11-24T08:41:15.990Z,65.22
2022-11-24T08:43:43.889Z,65.07
2022-11-24T08:46:14.144Z,65.28
2022-11-24T08:48:41.965Z,64.99
2022-11-24T08:51:12.302Z,64.56
2022-11-24T08:53:40.443Z,64.69
2022-11-24T08:56:09.329Z,64.65
2022-11-24T08:58:37.698Z,64.45
2022-11-24T09:01:07.626Z,64.38
2022-11-24T09:03:35.758Z,64.23
2022-11-24T09:06:04.068Z,63.57
2022-11-24T09:08:33.205Z,64.08
2022-11-24T09:11:02.606Z,64.01
2022-11-24T09:13:30.494Z,63.80
2022-11-24T09:16:06.833Z,63.79
2022-11-24T09:18:39.849Z,63.82
2022-11-24T09:21:08.213Z,63.64
2022-11-24T09:23:36.611Z,63.36
2022-11-24T09:26:06.395Z,63.07
2022-11-24T09:28:34.638Z,62.45
2022-11-24T09:31:04.661Z,62.27
2022-11-24T09:33:33.575Z,61.89
2022-11-24T09:36:01.538Z,61.34
2022-11-24T09:38:29.736Z,61.57
2022-11-24T09:41:15.157Z,61.56
2022-11-24T09:43:56.827Z,61.44
2022-11-24T09:46:33.827Z,61.83
2022-11-24T09:49:03.597Z,61.94
2022-11-24T09:51:32.402Z,61.34
2022-11-24T09:54:09.232Z,61.69
2022-11-24T09:56:38.602Z,61.57
2022-11-24T09:59:18.765Z,61.36
2022-11-24T10:01:48.092Z,61.53
2022-11-24T10:04:28.602Z,62.08
2022-11-24T10:06:56.566Z,62.04
2022-11-24T10:09:45.405Z,62.00
2022-11-24T10:12:30.855Z,62.09
2022-11-24T10:15:25.842Z,62.02
2022-11-24T10:18:16.733Z,62.06
2022-11-24T10:20:54.926Z,62.27
2022-11-24T10:23:56.698Z,62.55
2022-11-24T10:26:38.699Z,62.59
2022-11-24T10:29:14.131Z,62.65
2022-11-24T10:31:43.341Z,62.62
2022-11-24T10:34:27.846Z,62.82
2022-11-24T10:37:23.851Z,63.04
2022-11-24T10:40:04.119Z,62.78
2022-11-24T10:42:37.245Z,62.93
2022-11-24T10:45:31.700Z,62.72
2022-11-24T10:47:59.495Z,62.46
2022-11-24T10:50:31.441Z,62.57
2022-11-24T10:53:08.588Z,62.49
2022-11-24T10:55:54.713Z,62.82
2022-11-24T10:58:36.060Z,62.63
2022-11-24T11:01:15.101Z,62.86
2022-11-24T11:03:48.997Z,62.93
2022-11-24T11:06:30.559Z,62.84
2022-11-24T11:09:07.513Z,63.07
2022-11-24T11:11:36.974Z,62.89
2022-11-24T11:14:06.628Z,63.25
2022-11-24T11:20:58.593Z,62.87
2022-11-24T11:23:31.788Z,62.66
2022-11-24T11:26:22.605Z,62.81
2022-11-24T11:34:50.672Z,63.06
2022-11-24T11:37:20.314Z,63.28
2022-11-24T11:39:50.682Z,62.91
2022-11-24T11:43:03.786Z,62.97
2022-11-24T11:45:29.975Z,63.31
2022-11-24T11:48:01.054Z,63.73
2022-11-24T11:51:14.878Z,63.30
2022-11-24T11:53:36.996Z,63.45
2022-11-24T11:56:27.057Z,63.52
2022-11-24T11:59:23.046Z,63.77
2022-11-24T12:02:09.531Z,63.50
2022-11-24T12:04:53.698Z,63.38
2022-11-24T12:07:36.780Z,63.60
2022-11-24T12:10:10.361Z,63.43
2022-11-24T12:12:47.784Z,63.40
2022-11-24T12:15:34.098Z,63.59
2022-11-24T12:18:40.358Z,63.28
2022-11-24T12:21:27.060Z,63.02
2022-11-24T12:23:58.040Z,62.99
2022-11-24T12:26:58.265Z,63.28
2022-11-24T12:29:48.166Z,63.09
2022-11-24T12:32:41.172Z,62.86
2022-11-24T12:35:20.559Z,62.71
2022-11-24T12:38:25.351Z,62.45
2022-11-24T12:41:39.750Z,62.33
2022-11-24T12:43:56.563Z,62.52
2022-11-24T12:47:03.751Z,62.28
2022-11-24T12:49:45.700Z,62.00
2022-11-24T12:52:28.975Z,62.14
2022-11-24T12:54:56.968Z,62.37
2022-11-24T12:57:38.838Z,62.40
2022-11-24T13:00:24.111Z,62.53
2022-11-24T13:03:00.941Z,62.49
2022-11-24T13:05:46.083Z,62.38
2022-11-24T13:08:14.414Z,62.44
2022-11-24T13:10:58.368Z,62.38
2022-11-24T13:13:30.273Z,62.28
2022-11-24T13:16:35.034Z,62.55
2022-11-24T13:18:57.273Z,62.72
2022-11-24T13:21:31.315Z,62.84
2022-11-24T13:24:02.400Z,62.82
2022-11-24T13:26:33.581Z,62.94
2022-11-24T13:29:23.847Z,62.95
2022-11-24T13:31:57.106Z,62.89
2022-11-24T13:34:43.172Z,62.77
2022-11-24T13:37:28.881Z,62.84
2022-11-24T13:40:13.141Z,62.88
2022-11-24T13:42:57.299Z,62.77
2022-11-24T13:45:41.534Z,62.81
2022-11-24T13:48:22.355Z,64.67
2022-11-24T13:50:50.718Z,65.18
2022-11-24T13:53:18.945Z,65.10
2022-11-24T13:56:00.737Z,64.86
2022-11-24T13:58:36.489Z,64.25
2022-11-24T14:01:11.412Z,63.67
2022-11-24T14:04:43.259Z,63.37
2022-11-24T14:07:08.716Z,63.30
2022-11-24T14:09:42.261Z,63.20
2022-11-24T14:12:17.243Z,63.08
2022-11-24T14:14:47.980Z,63.10
2022-11-24T14:17:15.661Z,63.32
2022-11-24T14:19:48.755Z,63.33
2022-11-24T14:22:17.176Z,63.58
2022-11-24T14:24:47.035Z,63.75
2022-11-24T14:27:17.138Z,63.57
2022-11-24T14:29:59.802Z,63.41
2022-11-24T14:32:27.825Z,63.21
2022-11-24T14:34:56.998Z,63.41
2022-11-24T14:37:24.947Z,63.83
2022-11-24T14:39:52.812Z,63.78
2022-11-24T14:42:23.139Z,63.84
2022-11-24T14:44:56.755Z,63.80
2022-11-24T14:47:31.394Z,63.89
2022-11-24T14:50:20.103Z,64.00
2022-11-24T14:52:58.200Z,63.89
2022-11-24T14:55:29.379Z,63.98
2022-11-24T14:57:58.565Z,64.00
2022-11-24T15:00:31.656Z,63.87
2022-11-24T15:03:02.193Z,63.79
2022-11-24T15:05:58.392Z,63.64
2022-11-24T15:08:27.964Z,63.72
2022-11-24T15:11:00.867Z,63.65
2022-11-24T15:13:31.086Z,63.82
2022-11-24T15:16:03.148Z,63.93
2022-11-24T15:18:33.706Z,63.83
2022-11-24T15:21:01.735Z,63.88
2022-11-24T15:23:33.449Z,64.05
2022-11-24T15:26:01.372Z,64.11
2022-11-24T15:28:32.677Z,64.02
2022-11-24T15:31:06.416Z,64.12
2022-11-24T15:33:34.237Z,63.94
2022-11-24T15:36:02.310Z,63.86
2022-11-24T15:38:30.081Z,63.90
2022-11-24T15:40:59.311Z,63.72
2022-11-24T15:43:32.359Z,63.30
2022-11-24T15:46:01.519Z,63.71
2022-11-24T15:48:29.659Z,64.06
2022-11-24T15:50:58.959Z,64.32
2022-11-24T15:53:45.724Z,64.27
2022-11-24T15:56:33.083Z,63.88
2022-11-24T15:59:01.874Z,63.80
2022-11-24T16:01:31.611Z,64.03
2022-11-24T16:04:00.167Z,64.38
2022-11-24T16:06:27.972Z,64.45
2022-11-24T16:08:55.818Z,64.48
2022-11-24T16:11:23.742Z,64.41
2022-11-24T16:13:53.948Z,64.54
2022-11-24T16:16:23.377Z,64.90
2022-11-24T16:18:51.206Z,64.67
2022-11-24T16:21:18.951Z,64.68
2022-11-24T16:23:47.885Z,64.74
2022-11-24T16:26:15.747Z,64.64
2022-11-24T16:28:45.317Z,64.65
2022-11-24T16:31:15.795Z,64.34
2022-11-24T16:33:47.101Z,64.11
2022-11-24T16:36:15.239Z,64.26
2022-11-24T16:38:43.189Z,64.33
2022-11-24T16:41:11.562Z,64.27
2022-11-24T16:43:39.508Z,64.50
2022-11-24T16:46:23.726Z,64.60
2022-11-24T16:48:55.196Z,64.77
2022-11-24T16:51:23.882Z,64.73
2022-11-24T16:53:59.884Z,64.71
2022-11-24T16:56:28.922Z,64.49
2022-11-24T16:58:57.087Z,64.65
2022-11-24T17:01:26.132Z,64.79
2022-11-24T17:03:54.041Z,64.77
2022-11-24T17:06:21.983Z,64.56
2022-11-24T17:08:50.027Z,64.58
2022-11-24T17:11:20.699Z,64.52
2022-11-24T17:13:49.236Z,64.47
2022-11-24T17:16:19.847Z,64.43
2022-11-24T17:18:49.435Z,64.44
2022-11-24T17:21:22.907Z,64.27
2022-11-24T17:23:55.334Z,64.35
2022-11-24T17:26:23.870Z,64.22
2022-11-24T17:28:52.022Z,64.22
2022-11-24T17:31:27.611Z,64.13
2022-11-24T17:33:57.216Z,64.37
2022-11-24T17:36:26.385Z,64.76
2022-11-24T17:38:54.482Z,65.02
2022-11-24T17:41:22.651Z,65.12
2022-11-24T17:43:51.972Z,65.37
2022-11-24T17:46:19.924Z,65.17
2022-11-24T17:48:48.032Z,65.02
2022-11-24T17:51:19.234Z,64.96
2022-11-24T17:53:49.463Z,64.89
2022-11-24T17:56:25.529Z,64.74
2022-11-24T17:59:00.027Z,64.78
2022-11-24T18:01:30.190Z,64.55
2022-11-24T18:04:01.254Z,64.57
2022-11-24T18:06:29.299Z,64.64
2022-11-24T18:08:58.032Z,64.71
2022-11-24T18:11:31.333Z,64.56
2022-11-24T18:14:03.041Z,64.64
2022-11-24T18:16:32.520Z,64.87
2022-11-24T18:19:11.361Z,65.09
2022-11-24T18:21:41.279Z,64.98
2022-11-24T18:24:10.262Z,64.88
2022-11-24T18:26:39.366Z,64.90
2022-11-24T18:29:07.823Z,65.25
2022-11-24T18:31:36.321Z,65.15
2022-11-24T18:34:05.643Z,65.34
2022-11-24T18:36:33.755Z,65.34
2022-11-24T18:39:03.539Z,65.40
2022-11-24T18:41:32.019Z,65.22
2022-11-24T18:44:03.020Z,65.19
2022-11-24T18:46:30.816Z,65.22
2022-11-24T18:48:59.204Z,65.13
2022-11-24T18:51:27.291Z,64.88
2022-11-24T18:53:55.456Z,65.09
2022-11-24T18:56:23.933Z,64.98
2022-11-24T18:58:56.830Z,64.80
2022-11-24T19:01:27.327Z,65.13
2022-11-24T19:04:00.671Z,65.07
2022-11-24T19:06:32.628Z,65.30
2022-11-24T19:09:10.578Z,65.72
2022-11-24T19:11:40.518Z,65.94
2022-11-24T19:14:11.012Z,66.01
2022-11-24T19:16:39.466Z,65.72
2022-11-24T19:19:07.866Z,65.62
2022-11-24T19:21:42.482Z,65.58
2022-11-24T19:24:11.144Z,65.55
2022-11-24T19:26:39.847Z,65.49
2022-11-24T19:29:08.381Z,65.46
2022-11-24T19:31:39.350Z,65.28
2022-11-24T19:34:08.078Z,65.43
2022-11-24T19:36:36.462Z,65.43
2022-11-24T19:39:05.257Z,65.90
2022-11-24T19:41:34.223Z,65.81
2022-11-24T19:44:02.012Z,65.67
2022-11-24T19:46:30.193Z,65.77
2022-11-24T19:49:01.789Z,65.53
2022-11-24T19:51:31.612Z,65.53
2022-11-24T19:54:00.352Z,65.86
2022-11-24T19:56:30.749Z,65.81
2022-11-24T19:58:58.712Z,65.66
2022-11-24T20:01:28.817Z,65.65
2022-11-24T20:04:01.302Z,65.67
2022-11-24T20:06:31.907Z,65.92
2022-11-24T20:09:00.784Z,65.95
2022-11-24T20:11:29.335Z,65.77
2022-11-24T20:13:57.925Z,65.91
2022-11-24T20:16:31.117Z,65.79
2022-11-24T20:19:07.533Z,65.75
2022-11-24T20:21:36.969Z,65.70
2022-11-24T20:24:12.380Z,65.62
2022-11-24T20:26:46.674Z,65.11
2022-11-24T20:29:15.443Z,65.53
2022-11-24T20:31:48.952Z,65.80
2022-11-24T20:34:17.742Z,65.92
2022-11-24T20:36:46.981Z,65.87
2022-11-24T20:39:19.597Z,66.12
2022-11-24T20:41:47.472Z,66.15
2022-11-24T20:44:18.317Z,66.26
2022-11-24T20:46:46.643Z,66.30
2022-11-24T20:49:17.199Z,66.23
2022-11-24T20:51:47.758Z,66.28
2022-11-24T20:54:17.660Z,65.97
2022-11-24T20:56:46.559Z,66.11
2022-11-24T20:59:21.445Z,66.25
2022-11-24T21:01:50.350Z,66.07
2022-11-24T21:04:21.450Z,66.02
2022-11-24T21:06:49.936Z,66.03
2022-11-24T21:09:18.456Z,65.78
2022-11-24T21:11:47.259Z,66.03
2022-11-24T21:14:15.619Z,66.35
2022-11-24T21:16:43.979Z,66.43
2022-11-24T21:19:14.238Z,66.61
2022-11-24T21:21:43.275Z,66.64
2022-11-24T21:24:16.314Z,66.52
2022-11-24T21:26:47.540Z,66.28
2022-11-24T21:29:18.839Z,66.15
2022-11-24T21:31:46.802Z,66.74
2022-11-24T21:34:16.640Z,66.94
2022-11-24T21:36:45.141Z,66.68
2022-11-24T21:39:15.869Z,66.68
2022-11-24T21:41:43.780Z,66.60
2022-11-24T21:44:13.382Z,66.60
2022-11-24T21:46:46.256Z,66.64
2022-11-24T21:49:17.283Z,66.73
2022-11-24T21:51:45.006Z,66.65
2022-11-24T21:54:12.843Z,66.31
2022-11-24T21:56:40.624Z,66.43
2022-11-24T21:59:08.556Z,66.40
2022-11-24T22:01:36.342Z,66.38
2022-11-24T22:04:04.690Z,66.27
2022-11-24T22:06:33.266Z,66.06
2022-11-24T22:09:01.231Z,66.06
2022-11-24T22:11:29.014Z,65.90
2022-11-24T22:13:56.740Z,65.99
2022-11-24T22:16:25.558Z,66.10
2022-11-24T22:18:53.429Z,65.94
2022-11-24T22:21:30.646Z,66.03
2022-11-24T22:23:58.796Z,66.38
2022-11-24T22:26:27.598Z,66.43
2022-11-24T22:28:56.637Z,66.39
2022-11-24T22:31:26.495Z,66.10
2022-11-24T22:33:55.453Z,66.54
2022-11-24T22:36:25.082Z,66.48
2022-11-24T22:39:03.163Z,66.25
2022-11-24T22:41:34.979Z,66.20
2022-11-24T22:44:03.001Z,66.18
2022-11-24T22:46:31.910Z,66.24
2022-11-24T22:49:00.910Z,66.26
2022-11-24T22:51:33.469Z,66.39
2022-11-24T22:54:02.945Z,66.74
2022-11-24T22:56:32.547Z,66.77
2022-11-24T22:59:01.517Z,67.33
2022-11-24T23:01:30.584Z,67.11
2022-11-24T23:03:58.388Z,67.04
2022-11-24T23:06:28.765Z,67.40
2022-11-24T23:08:57.955Z,67.23
2022-11-24T23:11:34.862Z,67.24
2022-11-24T23:14:04.000Z,67.35
2022-11-24T23:16:31.795Z,67.18
2022-11-24T23:18:59.774Z,67.00
2022-11-24T23:21:29.321Z,66.95
2022-11-24T23:23:58.900Z,66.89
2022-11-24T23:26:29.920Z,66.88
2022-11-24T23:28:57.607Z,67.19
2022-11-24T23:31:30.269Z,67.14
2022-11-24T23:33:59.722Z,67.13
2022-11-24T23:36:28.238Z,67.17
2022-11-24T23:38:56.362Z,66.98
2022-11-24T23:41:25.358Z,67.19
2022-11-24T23:43:53.203Z,67.11
2022-11-24T23:46:23.013Z,66.81
2022-11-24T23:48:52.902Z,66.71
2022-11-24T23:51:29.435Z,66.54
2022-11-24T23:53:58.121Z,66.53
2022-11-24T23:56:32.307Z,66.62
2022-11-24T23:59:00.975Z,66.97
